sensor_id;sensor_type;location;lat;lon;timestamp;P1;durP1;ratioP1;P2;durP2;ratioP2
68144;SDS011;55400;51.824;-0.196;2023-03-01T00:03:45;1.90;;;1.80;;
68144;SDS011;55400;51.824;-0.196;2023-03-01T00:07:44;1.70;;;1.60;;
68144;SDS011;55400;51.824;-0.196;2023-03-01T00:11:45;1.80;;;1.70;;
68144;SDS011;55400;51.824;-0.196;2023-03-01T00:15:44;2.90;;;1.70;;
68144;SDS011;55400;51.824;-0.196;2023-03-01T00:19:44;1.70;;;1.60;;
68144;SDS011;55400;51.824;-0.196;2023-03-01T00:23:44;1.80;;;1.70;;
68144;SDS011;55400;51.824;-0.196;2023-03-01T00:27:46;3.40;;;1.90;;
68144;SDS011;55400;51.824;-0.196;2023-03-01T00:31:44;1.50;;;1.40;;
68144;SDS011;55400;51.824;-0.196;2023-03-01T00:35:44;1.60;;;1.50;;
68144;SDS011;55400;51.824;-0.196;2023-03-01T00:55:45;2.30;;;2.10;;
68144;SDS011;55400;51.824;-0.196;2023-03-01T00:59:44;1.70;;;1.60;;
68144;SDS011;55400;51.824;-0.196;2023-03-01T01:07:45;2.50;;;1.70;;
68144;SDS011;55400;51.824;-0.196;2023-03-01T01:11:46;1.70;;;1.60;;
68144;SDS011;55400;51.824;-0.196;2023-03-01T01:15:45;1.80;;;1.70;;
68144;SDS011;55400;51.824;-0.196;2023-03-01T01:19:44;2.00;;;1.80;;
68144;SDS011;55400;51.824;-0.196;2023-03-01T01:23:46;1.90;;;1.60;;
68144;SDS011;55400;51.824;-0.196;2023-03-01T01:27:45;1.80;;;1.70;;
68144;SDS011;55400;51.824;-0.196;2023-03-01T01:35:45;1.90;;;1.60;;
68144;SDS011;55400;51.824;-0.196;2023-03-01T01:39:45;4.90;;;1.70;;
68144;SDS011;55400;51.824;-0.196;2023-03-01T01:43:48;1.80;;;1.70;;
68144;SDS011;55400;51.824;-0.196;2023-03-01T01:47:45;1.70;;;1.60;;
68144;SDS011;55400;51.824;-0.196;2023-03-01T01:51:47;1.80;;;1.60;;
68144;SDS011;55400;51.824;-0.196;2023-03-01T01:55:47;1.40;;;1.40;;
68144;SDS011;55400;51.824;-0.196;2023-03-01T01:59:48;1.70;;;1.60;;
68144;SDS011;55400;51.824;-0.196;2023-03-01T02:03:46;1.60;;;1.50;;
68144;SDS011;55400;51.824;-0.196;2023-03-01T02:07:46;1.60;;;1.50;;
68144;SDS011;55400;51.824;-0.196;2023-03-01T02:11:47;1.70;;;1.60;;
68144;SDS011;55400;51.824;-0.196;2023-03-01T02:15:45;1.80;;;1.70;;
68144;SDS011;55400;51.824;-0.196;2023-03-01T02:19:55;2.90;;;1.50;;
68144;SDS011;55400;51.824;-0.196;2023-03-01T02:23:45;1.60;;;1.50;;
68144;SDS011;55400;51.824;-0.196;2023-03-01T02:31:45;1.60;;;1.50;;
68144;SDS011;55400;51.824;-0.196;2023-03-01T02:35:45;1.50;;;1.50;;
68144;SDS011;55400;51.824;-0.196;2023-03-01T02:39:48;1.70;;;1.60;;
68144;SDS011;55400;51.824;-0.196;2023-03-01T02:43:45;1.70;;;1.60;;
68144;SDS011;55400;51.824;-0.196;2023-03-01T02:47:45;1.60;;;1.50;;
68144;SDS011;55400;51.824;-0.196;2023-03-01T02:51:50;1.70;;;1.60;;
68144;SDS011;55400;51.824;-0.196;2023-03-01T02:55:45;2.10;;;1.60;;
68144;SDS011;55400;51.824;-0.196;2023-03-01T02:59:45;1.40;;;1.40;;
68144;SDS011;55400;51.824;-0.196;2023-03-01T03:03:45;1.70;;;1.60;;
68144;SDS011;55400;51.824;-0.196;2023-03-01T03:07:46;1.30;;;1.30;;
68144;SDS011;55400;51.824;-0.196;2023-03-01T03:11:46;1.70;;;1.60;;
68144;SDS011;55400;51.824;-0.196;2023-03-01T03:19:45;2.70;;;1.50;;
68144;SDS011;55400;51.824;-0.196;2023-03-01T03:23:45;2.20;;;1.70;;
68144;SDS011;55400;51.824;-0.196;2023-03-01T03:27:47;3.40;;;1.60;;
68144;SDS011;55400;51.824;-0.196;2023-03-01T03:31:45;1.80;;;1.70;;
68144;SDS011;55400;51.824;-0.196;2023-03-01T03:35:47;3.40;;;1.70;;
68144;SDS011;55400;51.824;-0.196;2023-03-01T03:43:45;2.50;;;1.60;;
68144;SDS011;55400;51.824;-0.196;2023-03-01T03:47:45;2.30;;;1.70;;
68144;SDS011;55400;51.824;-0.196;2023-03-01T03:51:45;2.40;;;1.60;;
68144;SDS011;55400;51.824;-0.196;2023-03-01T03:59:45;3.60;;;1.40;;
68144;SDS011;55400;51.824;-0.196;2023-03-01T04:03:45;1.60;;;1.50;;
68144;SDS011;55400;51.824;-0.196;2023-03-01T04:07:46;1.90;;;1.50;;
68144;SDS011;55400;51.824;-0.196;2023-03-01T04:11:45;2.30;;;1.50;;
68144;SDS011;55400;51.824;-0.196;2023-03-01T04:15:45;2.30;;;1.60;;
68144;SDS011;55400;51.824;-0.196;2023-03-01T04:19:45;2.80;;;1.80;;
68144;SDS011;55400;51.824;-0.196;2023-03-01T04:23:45;5.30;;;1.80;;
68144;SDS011;55400;51.824;-0.196;2023-03-01T04:31:47;3.40;;;1.80;;
68144;SDS011;55400;51.824;-0.196;2023-03-01T04:35:45;4.20;;;2.10;;
68144;SDS011;55400;51.824;-0.196;2023-03-01T04:55:45;2.50;;;1.90;;
68144;SDS011;55400;51.824;-0.196;2023-03-01T05:07:45;2.70;;;1.80;;
68144;SDS011;55400;51.824;-0.196;2023-03-01T05:11:45;3.10;;;1.80;;
68144;SDS011;55400;51.824;-0.196;2023-03-01T05:15:46;4.60;;;2.00;;
68144;SDS011;55400;51.824;-0.196;2023-03-01T05:19:45;4.20;;;2.00;;
68144;SDS011;55400;51.824;-0.196;2023-03-01T05:23:45;2.50;;;1.80;;
68144;SDS011;55400;51.824;-0.196;2023-03-01T05:27:45;3.60;;;1.90;;
68144;SDS011;55400;51.824;-0.196;2023-03-01T05:31:45;4.20;;;1.70;;
68144;SDS011;55400;51.824;-0.196;2023-03-01T05:35:45;5.10;;;2.10;;
68144;SDS011;55400;51.824;-0.196;2023-03-01T05:39:45;4.10;;;2.10;;
68144;SDS011;55400;51.824;-0.196;2023-03-01T05:43:45;4.80;;;2.30;;
68144;SDS011;55400;51.824;-0.196;2023-03-01T05:47:47;6.40;;;2.20;;
68144;SDS011;55400;51.824;-0.196;2023-03-01T05:51:48;4.40;;;2.00;;
68144;SDS011;55400;51.824;-0.196;2023-03-01T05:55:45;5.00;;;2.10;;
68144;SDS011;55400;51.824;-0.196;2023-03-01T06:03:45;6.10;;;2.30;;
68144;SDS011;55400;51.824;-0.196;2023-03-01T06:11:45;4.00;;;1.90;;
68144;SDS011;55400;51.824;-0.196;2023-03-01T06:15:45;4.00;;;2.30;;
68144;SDS011;55400;51.824;-0.196;2023-03-01T06:19:46;4.50;;;2.10;;
68144;SDS011;55400;51.824;-0.196;2023-03-01T06:23:45;2.90;;;2.10;;
68144;SDS011;55400;51.824;-0.196;2023-03-01T06:27:46;3.30;;;1.90;;
68144;SDS011;55400;51.824;-0.196;2023-03-01T06:35:46;3.80;;;2.00;;
68144;SDS011;55400;51.824;-0.196;2023-03-01T06:39:45;5.10;;;1.90;;
68144;SDS011;55400;51.824;-0.196;2023-03-01T06:43:45;5.20;;;2.10;;
68144;SDS011;55400;51.824;-0.196;2023-03-01T06:51:46;3.70;;;2.40;;
68144;SDS011;55400;51.824;-0.196;2023-03-01T06:55:45;5.20;;;2.30;;
68144;SDS011;55400;51.824;-0.196;2023-03-01T06:59:46;6.40;;;2.30;;
68144;SDS011;55400;51.824;-0.196;2023-03-01T07:03:45;6.40;;;2.20;;
68144;SDS011;55400;51.824;-0.196;2023-03-01T07:07:46;3.80;;;2.20;;
68144;SDS011;55400;51.824;-0.196;2023-03-01T07:11:45;5.70;;;2.50;;
68144;SDS011;55400;51.824;-0.196;2023-03-01T07:19:46;3.50;;;2.10;;
68144;SDS011;55400;51.824;-0.196;2023-03-01T07:23:47;4.20;;;2.20;;
68144;SDS011;55400;51.824;-0.196;2023-03-01T07:27:48;6.10;;;2.20;;
68144;SDS011;55400;51.824;-0.196;2023-03-01T07:31:46;5.80;;;2.20;;
68144;SDS011;55400;51.824;-0.196;2023-03-01T07:35:46;5.50;;;2.20;;
68144;SDS011;55400;51.824;-0.196;2023-03-01T07:39:46;3.90;;;2.20;;
68144;SDS011;55400;51.824;-0.196;2023-03-01T07:43:46;4.00;;;2.20;;
68144;SDS011;55400;51.824;-0.196;2023-03-01T07:47:46;7.10;;;2.20;;
68144;SDS011;55400;51.824;-0.196;2023-03-01T07:51:46;4.10;;;2.00;;
68144;SDS011;55400;51.824;-0.196;2023-03-01T07:55:46;2.70;;;2.00;;
68144;SDS011;55400;51.824;-0.196;2023-03-01T07:59:46;2.10;;;1.80;;
68144;SDS011;55400;51.824;-0.196;2023-03-01T08:07:46;6.40;;;2.00;;
68144;SDS011;55400;51.824;-0.196;2023-03-01T08:11:46;3.40;;;1.90;;
68144;SDS011;55400;51.824;-0.196;2023-03-01T08:15:46;4.70;;;2.40;;
68144;SDS011;55400;51.824;-0.196;2023-03-01T08:19:46;2.90;;;1.90;;
68144;SDS011;55400;51.824;-0.196;2023-03-01T08:23:46;4.80;;;2.40;;
68144;SDS011;55400;51.824;-0.196;2023-03-01T08:27:46;3.20;;;1.90;;
68144;SDS011;55400;51.824;-0.196;2023-03-01T08:31:47;4.90;;;2.50;;
68144;SDS011;55400;51.824;-0.196;2023-03-01T08:35:46;4.00;;;2.00;;
68144;SDS011;55400;51.824;-0.196;2023-03-01T08:39:46;3.00;;;2.00;;
68144;SDS011;55400;51.824;-0.196;2023-03-01T08:43:46;4.00;;;2.00;;
68144;SDS011;55400;51.824;-0.196;2023-03-01T08:47:46;3.80;;;2.40;;
68144;SDS011;55400;51.824;-0.196;2023-03-01T08:51:47;2.80;;;2.20;;
68144;SDS011;55400;51.824;-0.196;2023-03-01T08:55:46;4.50;;;2.40;;
68144;SDS011;55400;51.824;-0.196;2023-03-01T08:59:46;3.80;;;2.50;;
68144;SDS011;55400;51.824;-0.196;2023-03-01T09:03:46;7.30;;;2.70;;
68144;SDS011;55400;51.824;-0.196;2023-03-01T09:07:46;3.90;;;2.60;;
68144;SDS011;55400;51.824;-0.196;2023-03-01T09:11:46;4.00;;;2.40;;
68144;SDS011;55400;51.824;-0.196;2023-03-01T09:15:46;5.70;;;3.10;;
68144;SDS011;55400;51.824;-0.196;2023-03-01T09:19:46;4.20;;;2.80;;
68144;SDS011;55400;51.824;-0.196;2023-03-01T09:23:47;5.10;;;2.40;;
68144;SDS011;55400;51.824;-0.196;2023-03-01T09:27:46;3.90;;;2.40;;
68144;SDS011;55400;51.824;-0.196;2023-03-01T09:31:46;5.30;;;2.70;;
68144;SDS011;55400;51.824;-0.196;2023-03-01T09:35:46;3.80;;;2.30;;
68144;SDS011;55400;51.824;-0.196;2023-03-01T09:43:50;3.10;;;2.40;;
68144;SDS011;55400;51.824;-0.196;2023-03-01T09:47:46;3.60;;;2.00;;
68144;SDS011;55400;51.824;-0.196;2023-03-01T09:51:54;3.20;;;2.10;;
68144;SDS011;55400;51.824;-0.196;2023-03-01T09:55:50;5.30;;;2.40;;
68144;SDS011;55400;51.824;-0.196;2023-03-01T09:59:57;3.10;;;1.80;;
68144;SDS011;55400;51.824;-0.196;2023-03-01T10:04:00;5.70;;;2.20;;
68144;SDS011;55400;51.824;-0.196;2023-03-01T10:07:53;2.70;;;2.00;;
68144;SDS011;55400;51.824;-0.196;2023-03-01T10:11:48;3.40;;;1.90;;
68144;SDS011;55400;51.824;-0.196;2023-03-01T10:19:47;4.20;;;2.10;;
68144;SDS011;55400;51.824;-0.196;2023-03-01T10:23:50;3.40;;;2.00;;
68144;SDS011;55400;51.824;-0.196;2023-03-01T10:27:51;6.10;;;2.20;;
68144;SDS011;55400;51.824;-0.196;2023-03-01T10:31:48;3.50;;;1.80;;
68144;SDS011;55400;51.824;-0.196;2023-03-01T10:35:46;5.40;;;2.20;;
68144;SDS011;55400;51.824;-0.196;2023-03-01T10:39:56;5.70;;;2.10;;
68144;SDS011;55400;51.824;-0.196;2023-03-01T10:43:49;5.00;;;2.00;;
68144;SDS011;55400;51.824;-0.196;2023-03-01T10:47:46;5.00;;;1.90;;
68144;SDS011;55400;51.824;-0.196;2023-03-01T10:51:47;3.70;;;2.10;;
68144;SDS011;55400;51.824;-0.196;2023-03-01T10:55:46;4.70;;;1.80;;
68144;SDS011;55400;51.824;-0.196;2023-03-01T11:00:03;3.70;;;1.90;;
68144;SDS011;55400;51.824;-0.196;2023-03-01T11:04:03;2.50;;;1.70;;
68144;SDS011;55400;51.824;-0.196;2023-03-01T11:07:47;4.50;;;1.80;;
68144;SDS011;55400;51.824;-0.196;2023-03-01T11:11:51;3.20;;;1.90;;
68144;SDS011;55400;51.824;-0.196;2023-03-01T11:20:00;4.60;;;2.10;;
68144;SDS011;55400;51.824;-0.196;2023-03-01T11:23:46;4.90;;;2.10;;
68144;SDS011;55400;51.824;-0.196;2023-03-01T11:27:46;6.20;;;1.80;;
68144;SDS011;55400;51.824;-0.196;2023-03-01T11:31:47;2.30;;;1.40;;
68144;SDS011;55400;51.824;-0.196;2023-03-01T11:35:50;2.40;;;1.40;;
68144;SDS011;55400;51.824;-0.196;2023-03-01T11:39:51;2.10;;;1.20;;
68144;SDS011;55400;51.824;-0.196;2023-03-01T11:43:50;3.30;;;1.40;;
68144;SDS011;55400;51.824;-0.196;2023-03-01T11:47:55;2.00;;;1.40;;
68144;SDS011;55400;51.824;-0.196;2023-03-01T11:51:53;4.50;;;1.60;;
68144;SDS011;55400;51.824;-0.196;2023-03-01T11:55:59;2.80;;;1.10;;
68144;SDS011;55400;51.824;-0.196;2023-03-01T12:04:01;2.10;;;1.30;;
68144;SDS011;55400;51.824;-0.196;2023-03-01T12:07:50;1.70;;;1.60;;
68144;SDS011;55400;51.824;-0.196;2023-03-01T12:16:00;3.60;;;1.90;;
68144;SDS011;55400;51.824;-0.196;2023-03-01T12:19:58;2.20;;;1.40;;
68144;SDS011;55400;51.824;-0.196;2023-03-01T12:24:01;2.30;;;1.30;;
68144;SDS011;55400;51.824;-0.196;2023-03-01T12:27:58;2.90;;;1.20;;
68144;SDS011;55400;51.824;-0.196;2023-03-01T12:32:07;1.60;;;1.30;;
68144;SDS011;55400;51.824;-0.196;2023-03-01T12:35:54;2.10;;;1.40;;
68144;SDS011;55400;51.824;-0.196;2023-03-01T12:39:56;2.70;;;1.60;;
68144;SDS011;55400;51.824;-0.196;2023-03-01T12:43:54;1.40;;;1.30;;
68144;SDS011;55400;51.824;-0.196;2023-03-01T12:47:58;2.60;;;1.50;;
68144;SDS011;55400;51.824;-0.196;2023-03-01T12:55:47;1.80;;;1.30;;
68144;SDS011;55400;51.824;-0.196;2023-03-01T13:00:00;1.90;;;1.30;;
68144;SDS011;55400;51.824;-0.196;2023-03-01T13:04:01;1.50;;;1.20;;
68144;SDS011;55400;51.824;-0.196;2023-03-01T13:07:54;3.00;;;1.30;;
68144;SDS011;55400;51.824;-0.196;2023-03-01T13:11:47;1.90;;;1.20;;
68144;SDS011;55400;51.824;-0.196;2023-03-01T13:15:47;1.80;;;1.20;;
68144;SDS011;55400;51.824;-0.196;2023-03-01T13:19:56;2.10;;;1.20;;
68144;SDS011;55400;51.824;-0.196;2023-03-01T13:23:47;1.80;;;1.20;;
68144;SDS011;55400;51.824;-0.196;2023-03-01T13:27:47;2.20;;;1.40;;
68144;SDS011;55400;51.824;-0.196;2023-03-01T13:31:56;4.50;;;1.50;;
68144;SDS011;55400;51.824;-0.196;2023-03-01T13:35:47;3.40;;;1.80;;
68144;SDS011;55400;51.824;-0.196;2023-03-01T13:39:46;3.10;;;1.30;;
68144;SDS011;55400;51.824;-0.196;2023-03-01T13:43:47;2.00;;;1.50;;
68144;SDS011;55400;51.824;-0.196;2023-03-01T13:47:49;3.60;;;1.30;;
68144;SDS011;55400;51.824;-0.196;2023-03-01T13:51:47;2.10;;;1.60;;
68144;SDS011;55400;51.824;-0.196;2023-03-01T13:55:48;2.50;;;1.50;;
68144;SDS011;55400;51.824;-0.196;2023-03-01T13:59:47;1.80;;;1.70;;
68144;SDS011;55400;51.824;-0.196;2023-03-01T14:03:47;4.20;;;1.40;;
68144;SDS011;55400;51.824;-0.196;2023-03-01T14:12:01;2.10;;;1.30;;
68144;SDS011;55400;51.824;-0.196;2023-03-01T14:15:54;1.80;;;1.30;;
68144;SDS011;55400;51.824;-0.196;2023-03-01T14:19:48;2.60;;;1.50;;
68144;SDS011;55400;51.824;-0.196;2023-03-01T14:23:47;2.00;;;1.10;;
68144;SDS011;55400;51.824;-0.196;2023-03-01T14:27:52;2.80;;;1.20;;
68144;SDS011;55400;51.824;-0.196;2023-03-01T14:31:47;2.00;;;0.90;;
68144;SDS011;55400;51.824;-0.196;2023-03-01T14:35:58;1.00;;;1.00;;
68144;SDS011;55400;51.824;-0.196;2023-03-01T14:39:47;2.80;;;1.10;;
68144;SDS011;55400;51.824;-0.196;2023-03-01T14:43:50;1.20;;;1.10;;
68144;SDS011;55400;51.824;-0.196;2023-03-01T14:51:52;1.90;;;1.20;;
68144;SDS011;55400;51.824;-0.196;2023-03-01T14:55:50;2.30;;;1.30;;
68144;SDS011;55400;51.824;-0.196;2023-03-01T14:59:48;2.20;;;1.30;;
68144;SDS011;55400;51.824;-0.196;2023-03-01T15:03:48;1.50;;;1.30;;
68144;SDS011;55400;51.824;-0.196;2023-03-01T15:07:47;2.60;;;1.50;;
68144;SDS011;55400;51.824;-0.196;2023-03-01T15:11:47;1.10;;;1.00;;
68144;SDS011;55400;51.824;-0.196;2023-03-01T15:15:48;1.20;;;1.10;;
68144;SDS011;55400;51.824;-0.196;2023-03-01T15:19:47;1.00;;;0.90;;
68144;SDS011;55400;51.824;-0.196;2023-03-01T15:23:49;1.80;;;1.10;;
68144;SDS011;55400;51.824;-0.196;2023-03-01T15:27:48;1.70;;;0.90;;
68144;SDS011;55400;51.824;-0.196;2023-03-01T15:31:55;0.80;;;0.80;;
68144;SDS011;55400;51.824;-0.196;2023-03-01T15:35:48;0.80;;;0.80;;
68144;SDS011;55400;51.824;-0.196;2023-03-01T15:39:53;0.90;;;0.80;;
68144;SDS011;55400;51.824;-0.196;2023-03-01T15:43:47;0.90;;;0.90;;
68144;SDS011;55400;51.824;-0.196;2023-03-01T15:47:48;0.90;;;0.70;;
68144;SDS011;55400;51.824;-0.196;2023-03-01T15:55:47;2.50;;;1.00;;
68144;SDS011;55400;51.824;-0.196;2023-03-01T15:59:47;1.30;;;1.00;;
68144;SDS011;55400;51.824;-0.196;2023-03-01T16:03:47;1.90;;;1.00;;
68144;SDS011;55400;51.824;-0.196;2023-03-01T16:07:47;2.30;;;1.30;;
68144;SDS011;55400;51.824;-0.196;2023-03-01T16:11:47;3.40;;;1.10;;
68144;SDS011;55400;51.824;-0.196;2023-03-01T16:15:47;2.50;;;1.20;;
68144;SDS011;55400;51.824;-0.196;2023-03-01T16:19:47;3.00;;;2.30;;
68144;SDS011;55400;51.824;-0.196;2023-03-01T16:23:47;3.70;;;2.00;;
68144;SDS011;55400;51.824;-0.196;2023-03-01T16:27:48;4.70;;;1.60;;
68144;SDS011;55400;51.824;-0.196;2023-03-01T16:31:47;2.60;;;1.80;;
68144;SDS011;55400;51.824;-0.196;2023-03-01T16:35:47;3.60;;;1.30;;
68144;SDS011;55400;51.824;-0.196;2023-03-01T16:39:47;2.10;;;1.20;;
68144;SDS011;55400;51.824;-0.196;2023-03-01T16:43:48;3.00;;;1.10;;
68144;SDS011;55400;51.824;-0.196;2023-03-01T16:47:47;2.70;;;1.30;;
68144;SDS011;55400;51.824;-0.196;2023-03-01T16:51:47;4.10;;;1.30;;
68144;SDS011;55400;51.824;-0.196;2023-03-01T16:55:52;2.40;;;1.40;;
68144;SDS011;55400;51.824;-0.196;2023-03-01T16:59:51;5.70;;;3.10;;
68144;SDS011;55400;51.824;-0.196;2023-03-01T17:03:49;2.50;;;1.20;;
68144;SDS011;55400;51.824;-0.196;2023-03-01T17:07:47;3.80;;;1.60;;
68144;SDS011;55400;51.824;-0.196;2023-03-01T17:11:47;3.30;;;1.60;;
68144;SDS011;55400;51.824;-0.196;2023-03-01T17:15:47;4.30;;;1.60;;
68144;SDS011;55400;51.824;-0.196;2023-03-01T17:19:47;2.80;;;1.50;;
68144;SDS011;55400;51.824;-0.196;2023-03-01T17:23:47;1.60;;;1.10;;
68144;SDS011;55400;51.824;-0.196;2023-03-01T17:27:47;2.80;;;1.60;;
68144;SDS011;55400;51.824;-0.196;2023-03-01T17:31:47;3.40;;;1.70;;
68144;SDS011;55400;51.824;-0.196;2023-03-01T17:35:49;6.50;;;1.80;;
68144;SDS011;55400;51.824;-0.196;2023-03-01T17:39:47;3.20;;;1.70;;
68144;SDS011;55400;51.824;-0.196;2023-03-01T17:43:47;3.50;;;1.90;;
68144;SDS011;55400;51.824;-0.196;2023-03-01T17:47:47;2.90;;;1.40;;
68144;SDS011;55400;51.824;-0.196;2023-03-01T17:51:47;3.80;;;1.30;;
68144;SDS011;55400;51.824;-0.196;2023-03-01T17:55:47;4.20;;;1.60;;
68144;SDS011;55400;51.824;-0.196;2023-03-01T17:59:47;2.90;;;1.30;;
68144;SDS011;55400;51.824;-0.196;2023-03-01T18:03:49;3.60;;;1.40;;
68144;SDS011;55400;51.824;-0.196;2023-03-01T18:07:47;5.30;;;1.70;;
68144;SDS011;55400;51.824;-0.196;2023-03-01T18:11:47;5.80;;;1.80;;
68144;SDS011;55400;51.824;-0.196;2023-03-01T18:19:48;4.30;;;1.80;;
68144;SDS011;55400;51.824;-0.196;2023-03-01T18:23:47;5.30;;;2.20;;
68144;SDS011;55400;51.824;-0.196;2023-03-01T18:27:48;3.00;;;2.10;;
68144;SDS011;55400;51.824;-0.196;2023-03-01T18:31:47;3.70;;;2.10;;
68144;SDS011;55400;51.824;-0.196;2023-03-01T18:35:47;3.80;;;1.70;;
68144;SDS011;55400;51.824;-0.196;2023-03-01T18:39:49;2.40;;;1.60;;
68144;SDS011;55400;51.824;-0.196;2023-03-01T18:43:48;1.20;;;1.10;;
68144;SDS011;55400;51.824;-0.196;2023-03-01T18:47:48;3.20;;;1.70;;
68144;SDS011;55400;51.824;-0.196;2023-03-01T18:51:47;2.80;;;1.40;;
68144;SDS011;55400;51.824;-0.196;2023-03-01T18:55:47;3.50;;;1.60;;
68144;SDS011;55400;51.824;-0.196;2023-03-01T18:59:47;4.00;;;1.70;;
68144;SDS011;55400;51.824;-0.196;2023-03-01T19:03:48;3.10;;;1.90;;
68144;SDS011;55400;51.824;-0.196;2023-03-01T19:07:48;6.30;;;2.10;;
68144;SDS011;55400;51.824;-0.196;2023-03-01T19:11:47;2.80;;;1.70;;
68144;SDS011;55400;51.824;-0.196;2023-03-01T19:15:47;5.10;;;2.00;;
68144;SDS011;55400;51.824;-0.196;2023-03-01T19:19:47;3.80;;;2.10;;
68144;SDS011;55400;51.824;-0.196;2023-03-01T19:27:47;4.00;;;2.10;;
68144;SDS011;55400;51.824;-0.196;2023-03-01T19:31:47;5.50;;;2.40;;
68144;SDS011;55400;51.824;-0.196;2023-03-01T19:35:48;4.60;;;2.30;;
68144;SDS011;55400;51.824;-0.196;2023-03-01T19:39:48;5.80;;;2.80;;
68144;SDS011;55400;51.824;-0.196;2023-03-01T19:43:48;4.40;;;2.40;;
68144;SDS011;55400;51.824;-0.196;2023-03-01T19:47:47;6.20;;;2.30;;
68144;SDS011;55400;51.824;-0.196;2023-03-01T19:55:48;6.20;;;2.60;;
68144;SDS011;55400;51.824;-0.196;2023-03-01T19:59:48;5.10;;;2.70;;
68144;SDS011;55400;51.824;-0.196;2023-03-01T20:03:48;7.30;;;3.20;;
68144;SDS011;55400;51.824;-0.196;2023-03-01T20:07:48;10.40;;;3.90;;
68144;SDS011;55400;51.824;-0.196;2023-03-01T20:11:48;16.40;;;6.20;;
68144;SDS011;55400;51.824;-0.196;2023-03-01T20:15:48;13.80;;;6.40;;
68144;SDS011;55400;51.824;-0.196;2023-03-01T20:19:48;8.10;;;4.70;;
68144;SDS011;55400;51.824;-0.196;2023-03-01T20:23:48;8.80;;;5.20;;
68144;SDS011;55400;51.824;-0.196;2023-03-01T20:27:48;9.70;;;5.10;;
68144;SDS011;55400;51.824;-0.196;2023-03-01T20:31:48;9.10;;;4.60;;
68144;SDS011;55400;51.824;-0.196;2023-03-01T20:35:49;7.10;;;2.90;;
68144;SDS011;55400;51.824;-0.196;2023-03-01T20:39:48;7.20;;;2.90;;
68144;SDS011;55400;51.824;-0.196;2023-03-01T20:43:48;5.20;;;2.80;;
68144;SDS011;55400;51.824;-0.196;2023-03-01T20:47:48;5.40;;;2.50;;
68144;SDS011;55400;51.824;-0.196;2023-03-01T20:51:48;7.00;;;2.70;;
68144;SDS011;55400;51.824;-0.196;2023-03-01T20:55:48;6.40;;;2.80;;
68144;SDS011;55400;51.824;-0.196;2023-03-01T20:59:48;5.40;;;2.70;;
68144;SDS011;55400;51.824;-0.196;2023-03-01T21:03:48;6.10;;;2.20;;
68144;SDS011;55400;51.824;-0.196;2023-03-01T21:07:49;4.80;;;2.50;;
68144;SDS011;55400;51.824;-0.196;2023-03-01T21:11:48;4.40;;;2.20;;
68144;SDS011;55400;51.824;-0.196;2023-03-01T21:15:51;7.10;;;2.60;;
68144;SDS011;55400;51.824;-0.196;2023-03-01T21:19:48;8.70;;;2.70;;
68144;SDS011;55400;51.824;-0.196;2023-03-01T21:23:48;5.30;;;2.60;;
68144;SDS011;55400;51.824;-0.196;2023-03-01T21:31:48;8.30;;;3.00;;
68144;SDS011;55400;51.824;-0.196;2023-03-01T21:39:48;6.50;;;2.80;;
68144;SDS011;55400;51.824;-0.196;2023-03-01T21:51:48;7.00;;;3.00;;
68144;SDS011;55400;51.824;-0.196;2023-03-01T21:55:48;7.20;;;2.90;;
68144;SDS011;55400;51.824;-0.196;2023-03-01T21:59:48;5.30;;;2.70;;
68144;SDS011;55400;51.824;-0.196;2023-03-01T22:07:48;6.80;;;3.00;;
68144;SDS011;55400;51.824;-0.196;2023-03-01T22:11:50;4.70;;;2.70;;
68144;SDS011;55400;51.824;-0.196;2023-03-01T22:15:48;7.50;;;2.90;;
68144;SDS011;55400;51.824;-0.196;2023-03-01T22:23:48;5.00;;;2.10;;
68144;SDS011;55400;51.824;-0.196;2023-03-01T22:27:48;6.00;;;2.10;;
68144;SDS011;55400;51.824;-0.196;2023-03-01T22:31:48;2.60;;;2.10;;
68144;SDS011;55400;51.824;-0.196;2023-03-01T22:35:48;2.10;;;1.90;;
68144;SDS011;55400;51.824;-0.196;2023-03-01T22:39:48;1.70;;;1.60;;
68144;SDS011;55400;51.824;-0.196;2023-03-01T22:43:48;2.40;;;2.00;;
68144;SDS011;55400;51.824;-0.196;2023-03-01T22:47:48;2.10;;;1.80;;
68144;SDS011;55400;51.824;-0.196;2023-03-01T22:51:49;2.40;;;2.00;;
68144;SDS011;55400;51.824;-0.196;2023-03-01T22:55:48;2.20;;;2.00;;
68144;SDS011;55400;51.824;-0.196;2023-03-01T22:59:48;2.20;;;2.00;;
68144;SDS011;55400;51.824;-0.196;2023-03-01T23:03:49;3.40;;;1.80;;
68144;SDS011;55400;51.824;-0.196;2023-03-01T23:07:48;2.10;;;1.90;;
68144;SDS011;55400;51.824;-0.196;2023-03-01T23:11:49;4.30;;;1.90;;
68144;SDS011;55400;51.824;-0.196;2023-03-01T23:15:51;2.30;;;1.80;;
68144;SDS011;55400;51.824;-0.196;2023-03-01T23:19:48;3.60;;;2.00;;
68144;SDS011;55400;51.824;-0.196;2023-03-01T23:23:48;4.30;;;2.30;;
68144;SDS011;55400;51.824;-0.196;2023-03-01T23:27:48;3.50;;;1.90;;
68144;SDS011;55400;51.824;-0.196;2023-03-01T23:35:49;4.10;;;2.00;;
68144;SDS011;55400;51.824;-0.196;2023-03-01T23:39:48;2.00;;;1.80;;
68144;SDS011;55400;51.824;-0.196;2023-03-01T23:43:50;4.70;;;2.30;;
68144;SDS011;55400;51.824;-0.196;2023-03-01T23:47:48;2.00;;;1.80;;
68144;SDS011;55400;51.824;-0.196;2023-03-01T23:51:48;4.00;;;2.20;;
68144;SDS011;55400;51.824;-0.196;2023-03-01T23:55:50;2.90;;;2.10;;
68144;SDS011;55400;51.824;-0.196;2023-03-01T23:59:48;2.10;;;1.90;;
